Time;durP1;ratioP1;P1;durP2;ratioP2;P2;SDS_P1;SDS_P2;PMS_P1;PMS_P2;Temp;Humidity;BMP_temperature;BMP_pressure;BME280_temperature;BME280_humidity;BME280_pressure;Samples;Min_cycle;Max_cycle;Signal;HPM_P1;HPM_P2
2023/03/05 00:00:42;;;;;;;37.33;16.70;;;;;;;7.61;85.57;94699.50;4987168;28;20231;-70
2023/03/05 00:03:08;;;;;;;39.50;17.07;;;;;;;7.65;85.73;94689.50;4999345;28;20735;-69
2023/03/05 00:05:33;;;;;;;41.47;16.83;;;;;;;7.63;86.46;94694.91;4986762;28;20231;-69
2023/03/05 00:07:59;;;;;;;36.00;16.30;;;;;;;7.72;86.27;94688.56;5005784;28;20274;-70
2023/03/05 00:10:24;;;;;;;42.20;16.80;;;;;;;7.67;86.03;94677.09;4986805;28;20226;-70
2023/03/05 00:12:50;;;;;;;44.40;17.03;;;;;;;7.56;86.33;94680.19;4986544;28;20242;-70
2023/03/05 00:15:15;;;;;;;43.87;17.37;;;;;;;7.66;86.32;94673.69;4963129;28;20704;-70
2023/03/05 00:17:41;;;;;;;38.83;16.27;;;;;;;7.69;86.29;94678.50;5004472;28;20269;-69
2023/03/05 00:20:07;;;;;;;42.70;16.97;;;;;;;7.74;86.07;94677.97;5002584;28;20234;-70
2023/03/05 00:22:34;;;;;;;34.87;15.93;;;;;;;7.72;86.39;94672.94;4985091;28;20751;-69
2023/03/05 00:24:59;;;;;;;39.87;16.03;;;;;;;7.76;85.74;94670.78;4985752;28;20231;-70
2023/03/05 00:27:24;;;;;;;39.83;16.87;;;;;;;7.83;85.48;94672.41;4985819;28;20905;-70
2023/03/05 00:29:50;;;;;;;38.13;16.03;;;;;;;7.80;85.22;94672.81;4980759;28;20233;-70
2023/03/05 00:32:15;;;;;;;40.40;16.47;;;;;;;7.65;85.31;94669.47;5002162;28;20688;-70
2023/03/05 00:34:41;;;;;;;39.40;16.00;;;;;;;7.61;86.28;94662.22;4986729;28;20362;-70
2023/03/05 00:37:06;;;;;;;36.10;16.33;;;;;;;7.76;85.43;94665.56;5001667;28;20243;-70
2023/03/05 00:39:32;;;;;;;36.67;16.20;;;;;;;7.67;86.29;94662.28;5002435;28;20238;-70
2023/03/05 00:41:57;;;;;;;38.97;16.53;;;;;;;7.62;86.13;94666.44;5001749;28;20250;-71
2023/03/05 00:44:23;;;;;;;36.10;15.90;;;;;;;7.69;86.00;94651.69;4977849;28;20234;-70
2023/03/05 00:46:48;;;;;;;40.77;15.67;;;;;;;7.79;85.68;94650.34;5003959;28;20309;-69
2023/03/05 00:49:14;;;;;;;39.30;16.83;;;;;;;7.74;85.49;94646.72;5002883;28;20722;-70
2023/03/05 00:51:39;;;;;;;36.83;15.70;;;;;;;7.66;86.20;94650.25;4979187;28;20266;-70
2023/03/05 00:54:05;;;;;;;34.93;16.57;;;;;;;7.66;85.86;94649.44;4985167;28;20239;-70
2023/03/05 00:56:31;;;;;;;37.70;16.23;;;;;;;7.73;85.41;94642.50;4986297;28;20238;-70
2023/03/05 00:58:56;;;;;;;41.17;16.23;;;;;;;7.58;85.71;94637.34;4984773;28;20240;-70
2023/03/05 01:01:22;;;;;;;37.53;15.90;;;;;;;7.54;86.14;94643.94;5003340;28;20234;-69
2023/03/05 01:03:47;;;;;;;38.27;16.43;;;;;;;7.59;85.43;94632.97;4984811;28;20234;-70
2023/03/05 01:06:13;;;;;;;36.30;15.63;;;;;;;7.60;85.59;94639.75;4991618;28;20239;-70
2023/03/05 01:08:39;;;;;;;36.23;15.90;;;;;;;7.68;84.96;94635.25;5003309;28;20325;-70
2023/03/05 01:11:05;;;;;;;38.70;16.03;;;;;;;7.68;85.56;94635.25;4981876;28;20234;-70
2023/03/05 01:13:30;;;;;;;39.00;15.90;;;;;;;7.65;85.03;94632.19;4986498;28;20361;-70
2023/03/05 01:15:55;;;;;;;36.30;15.60;;;;;;;7.60;85.69;94627.56;4985014;28;20241;-71
2023/03/05 01:18:21;;;;;;;34.83;15.57;;;;;;;7.59;84.83;94632.97;5002585;28;20238;-70
2023/03/05 01:20:46;;;;;;;32.90;15.03;;;;;;;7.67;84.45;94630.19;4970252;28;20227;-70
2023/03/05 01:23:12;;;;;;;39.40;16.13;;;;;;;7.61;84.40;94631.78;4969203;28;20235;-73
2023/03/05 01:25:37;;;;;;;34.83;15.00;;;;;;;7.50;83.40;94624.47;5002241;28;20242;-70
2023/03/05 01:28:04;;;;;;;40.47;16.23;;;;;;;7.41;84.42;94626.41;4986003;28;20231;-69
2023/03/05 01:30:29;;;;;;;34.50;15.50;;;;;;;7.57;84.27;94624.53;4985475;28;20241;-70
2023/03/05 01:32:55;;;;;;;37.40;15.70;;;;;;;7.56;84.17;94628.13;5001756;28;20274;-69
2023/03/05 01:35:21;;;;;;;36.97;15.13;;;;;;;7.59;83.61;94618.16;4984907;28;20741;-71
2023/03/05 01:37:47;;;;;;;34.60;15.17;;;;;;;7.48;83.34;94622.06;4968893;28;20249;-70
2023/03/05 01:40:13;;;;;;;33.77;14.70;;;;;;;7.27;84.20;94618.66;4984915;28;20227;-70
2023/03/05 01:42:39;;;;;;;34.40;14.83;;;;;;;7.27;84.35;94618.66;5001646;28;20253;-70
2023/03/05 01:45:11;;;;;;;34.33;15.33;;;;;;;7.50;83.92;94611.44;4984491;28;20234;-70
2023/03/05 01:47:36;;;;;;;32.80;14.93;;;;;;;7.29;84.04;94616.66;4985386;28;20245;-70
2023/03/05 01:50:03;;;;;;;37.57;15.50;;;;;;;7.47;84.04;94610.00;4985663;28;20621;-70
2023/03/05 01:52:29;;;;;;;40.07;15.83;;;;;;;7.53;82.82;94615.47;4983471;28;20235;-70
2023/03/05 01:54:58;;;;;;;39.80;16.23;;;;;;;7.53;83.03;94618.06;4989196;28;20675;-70
2023/03/05 01:57:34;;;;;;;36.87;15.43;;;;;;;7.39;82.92;94619.78;4981058;28;20230;-70
2023/03/05 02:00:04;;;;;;;35.57;15.53;;;;;;;7.41;83.70;94610.78;4988452;28;20234;-70
2023/03/05 02:02:29;;;;;;;32.00;15.03;;;;;;;7.30;82.18;94619.09;4973506;28;20779;-70
2023/03/05 02:04:58;;;;;;;36.53;15.63;;;;;;;7.47;82.91;94619.66;4988917;28;20215;-73
2023/03/05 02:07:24;;;;;;;36.50;16.13;;;;;;;7.51;81.67;94610.47;5004630;28;20230;-69
2023/03/05 02:09:49;;;;;;;36.30;14.73;;;;;;;7.44;82.21;94615.63;4999919;28;20300;-70
2023/03/05 02:12:15;;;;;;;36.53;15.37;;;;;;;7.46;82.28;94613.63;4986048;28;20234;-70
2023/03/05 02:14:41;;;;;;;35.53;15.67;;;;;;;7.58;82.18;94616.53;4988218;28;20368;-70
2023/03/05 02:17:07;;;;;;;38.07;16.00;;;;;;;7.45;81.79;94614.63;4987423;28;20226;-71
2023/03/05 02:19:50;;;;;;;34.30;15.23;;;;;;;7.27;81.94;94619.47;4988563;28;20329;-70
2023/03/05 02:22:16;;;;;;;35.27;14.93;;;;;;;7.41;81.75;94618.59;5004149;28;20234;-71
2023/03/05 02:24:42;;;;;;;35.17;15.33;;;;;;;7.43;81.57;94623.59;4988346;28;20226;-70
2023/03/05 02:27:07;;;;;;;36.27;14.80;;;;;;;7.34;82.53;94615.13;4984875;28;20231;-70
2023/03/05 02:29:33;;;;;;;35.67;15.00;;;;;;;7.09;81.65;94620.91;4968539;28;20322;-70
2023/03/05 02:31:59;;;;;;;35.93;15.00;;;;;;;7.27;81.78;94618.66;4985342;28;20898;-70
2023/03/05 02:34:25;;;;;;;32.70;15.10;;;;;;;7.34;81.91;94620.34;4985082;28;20282;-70
2023/03/05 02:36:50;;;;;;;35.23;15.13;;;;;;;7.28;82.38;94617.69;4984565;28;20734;-71
2023/03/05 02:39:16;;;;;;;37.53;15.60;;;;;;;7.23;82.23;94617.44;4967957;28;20364;-70
2023/03/05 02:41:41;;;;;;;35.60;15.73;;;;;;;7.25;82.93;94618.84;4969553;28;20235;-70
2023/03/05 02:44:07;;;;;;;38.33;16.03;;;;;;;7.31;82.32;94620.69;4968815;28;20648;-70
2023/03/05 02:46:33;;;;;;;31.73;15.10;;;;;;;7.22;82.31;94626.22;4968388;28;20350;-70
2023/03/05 02:48:58;;;;;;;39.13;15.70;;;;;;;7.05;82.90;94630.06;4968561;28;20223;-70
2023/03/05 02:51:24;;;;;;;40.60;15.83;;;;;;;7.17;83.66;94623.38;4968931;28;20269;-70
2023/03/05 02:53:49;;;;;;;37.50;15.80;;;;;;;7.13;83.05;94622.94;4967601;28;20235;-70
2023/03/05 02:56:15;;;;;;;36.13;15.33;;;;;;;7.30;83.29;94624.31;4968497;28;20232;-70
2023/03/05 02:58:40;;;;;;;40.13;16.20;;;;;;;7.24;83.72;94624.22;4969028;28;20236;-70
2023/03/05 03:01:07;;;;;;;42.50;16.03;;;;;;;7.32;83.59;94626.72;4967710;28;20243;-70
2023/03/05 03:03:33;;;;;;;39.20;17.10;;;;;;;7.04;84.61;94620.66;4967600;28;20708;-70
2023/03/05 03:05:58;;;;;;;38.80;16.47;;;;;;;6.92;85.53;94624.72;4984394;28;20232;-70
2023/03/05 03:08:24;;;;;;;40.27;17.13;;;;;;;7.01;85.24;94618.41;4966969;28;20326;-70
2023/03/05 03:10:49;;;;;;;42.50;16.87;;;;;;;7.06;85.04;94624.69;4969570;28;20334;-70
2023/03/05 03:13:15;;;;;;;44.53;18.20;;;;;;;7.00;85.10;94627.22;4968338;28;20243;-69
2023/03/05 03:15:40;;;;;;;45.80;17.97;;;;;;;7.06;84.94;94623.88;4969246;28;20926;-69
2023/03/05 03:18:06;;;;;;;44.37;17.87;;;;;;;7.01;84.68;94621.00;4967955;28;21020;-70
2023/03/05 03:20:33;;;;;;;43.73;18.27;;;;;;;6.89;85.14;94614.69;4967515;28;20327;-69
2023/03/05 03:22:59;;;;;;;44.77;18.23;;;;;;;7.01;84.35;94623.63;4967706;28;20242;-70
2023/03/05 03:25:24;;;;;;;47.87;18.07;;;;;;;6.94;84.84;94628.75;4967444;28;20223;-69
2023/03/05 03:27:50;;;;;;;43.57;17.23;;;;;;;6.83;84.10;94624.00;4999061;28;20314;-69
2023/03/05 03:30:15;;;;;;;45.07;18.03;;;;;;;7.02;84.10;94631.22;4961942;28;20243;-69
2023/03/05 03:32:41;;;;;;;40.27;17.07;;;;;;;6.93;84.04;94621.94;4960260;28;20236;-70
2023/03/05 03:35:07;;;;;;;40.00;17.77;;;;;;;6.85;84.15;94634.25;4958358;28;20260;-69
2023/03/05 03:37:33;;;;;;;45.83;17.20;;;;;;;7.06;84.19;94626.47;4952112;28;20246;-69
2023/03/05 03:39:58;;;;;;;42.30;17.40;;;;;;;6.96;83.85;94624.16;4967701;28;20310;-69
2023/03/05 03:42:24;;;;;;;47.63;17.97;;;;;;;6.89;83.93;94630.28;4984803;28;20239;-69
2023/03/05 03:44:50;;;;;;;45.97;18.33;;;;;;;7.01;83.44;94626.22;4947978;28;20284;-70
2023/03/05 03:47:15;;;;;;;42.50;17.67;;;;;;;6.99;83.95;94628.19;4943067;28;20251;-70
2023/03/05 03:49:41;;;;;;;44.23;17.77;;;;;;;7.02;83.63;94636.44;4968290;28;20674;-70
2023/03/05 03:52:07;;;;;;;42.17;18.50;;;;;;;6.95;84.32;94632.16;4966129;28;20235;-70
2023/03/05 03:54:32;;;;;;;41.57;18.20;;;;;;;6.84;83.93;94636.03;4983298;28;20662;-69
2023/03/05 03:56:57;;;;;;;42.87;18.13;;;;;;;7.01;83.24;94631.41;4942260;28;20271;-70
2023/03/05 03:59:23;;;;;;;43.47;17.47;;;;;;;6.90;84.01;94624.09;4984347;28;20234;-71
2023/03/05 04:01:48;;;;;;;44.63;17.87;;;;;;;6.79;83.94;94636.59;4989506;28;20462;-70
2023/03/05 04:04:14;;;;;;;48.23;19.10;;;;;;;6.81;84.79;94633.03;4961145;28;20274;-69
2023/03/05 04:06:39;;;;;;;43.47;17.40;;;;;;;6.65;84.60;94631.44;4962616;28;20629;-70
2023/03/05 04:09:06;;;;;;;45.37;18.73;;;;;;;6.81;84.04;94643.41;4983633;28;20235;-70
2023/03/05 04:11:33;;;;;;;43.07;17.87;;;;;;;6.64;84.26;94643.63;4960764;28;20235;-70
2023/03/05 04:13:58;;;;;;;45.50;18.13;;;;;;;6.61;85.04;94644.00;4961185;28;20237;-71
2023/03/05 04:16:24;;;;;;;44.40;17.63;;;;;;;6.64;84.02;94641.00;4958727;28;20231;-70
2023/03/05 04:18:49;;;;;;;48.47;18.60;;;;;;;6.70;85.26;94644.69;4967332;28;20243;-69
2023/03/05 04:21:15;;;;;;;46.40;18.00;;;;;;;6.68;84.83;94638.88;4966872;28;20235;-70
2023/03/05 04:23:40;;;;;;;48.50;18.40;;;;;;;6.74;84.53;94638.94;4958147;28;20239;-69
2023/03/05 04:26:06;;;;;;;41.93;17.90;;;;;;;6.81;84.49;94635.63;4959837;28;20261;-70
2023/03/05 04:28:31;;;;;;;44.17;17.37;;;;;;;6.60;85.06;94647.56;4968068;28;20636;-69
2023/03/05 04:30:57;;;;;;;44.57;17.50;;;;;;;6.56;85.13;94635.94;4982485;28;20252;-72
2023/03/05 04:33:22;;;;;;;44.30;18.83;;;;;;;6.63;84.41;94636.81;4981680;28;20312;-70
2023/03/05 04:35:48;;;;;;;43.30;17.93;;;;;;;6.62;84.56;94634.38;4982862;28;20234;-69
2023/03/05 04:38:13;;;;;;;46.33;18.13;;;;;;;6.64;85.11;94633.22;4980259;28;20680;-70
2023/03/05 04:40:39;;;;;;;46.77;18.60;;;;;;;6.70;84.32;94631.69;4982966;28;20241;-70
2023/03/05 04:43:04;;;;;;;45.10;18.50;;;;;;;6.65;84.11;94632.25;4982427;28;20254;-69
2023/03/05 04:45:30;;;;;;;50.50;18.87;;;;;;;6.66;84.58;94631.22;4981468;28;20230;-70
2023/03/05 04:47:55;;;;;;;44.77;19.30;;;;;;;6.74;84.55;94620.72;4976072;28;20231;-70
2023/03/05 04:50:21;;;;;;;48.93;18.70;;;;;;;6.70;83.97;94631.69;4988171;28;20656;-70
2023/03/05 04:52:46;;;;;;;41.20;17.53;;;;;;;6.54;83.94;94627.50;4951488;28;20245;-71
2023/03/05 04:55:13;;;;;;;42.40;17.17;;;;;;;6.52;84.27;94624.28;4966844;28;20237;-69
2023/03/05 04:57:38;;;;;;;44.20;18.33;;;;;;;6.56;84.16;94619.53;4955276;28;20619;-70
2023/03/05 05:00:05;;;;;;;45.70;18.20;;;;;;;6.61;83.96;94619.78;4957758;28;20242;-71
2023/03/05 05:02:31;;;;;;;51.53;18.70;;;;;;;6.57;84.17;94621.13;4973638;28;20333;-70
2023/03/05 05:04:57;;;;;;;39.37;17.27;;;;;;;6.57;84.25;94623.72;4962632;28;20540;-70
2023/03/05 05:07:22;;;;;;;43.23;17.90;;;;;;;6.49;84.10;94621.25;4962602;28;20230;-70
2023/03/05 05:09:48;;;;;;;45.37;18.43;;;;;;;6.54;84.05;94630.09;4963636;28;20281;-70
2023/03/05 05:12:14;;;;;;;42.67;17.00;;;;;;;6.51;83.72;94630.47;4960258;28;20235;-69
2023/03/05 05:14:39;;;;;;;46.27;18.17;;;;;;;6.52;84.22;94626.88;4941985;28;20293;-70
2023/03/05 05:17:05;;;;;;;43.83;18.27;;;;;;;6.51;84.83;94632.25;4954600;28;20368;-69
2023/03/05 05:19:33;;;;;;;43.60;17.53;;;;;;;6.57;83.39;94632.34;4986244;28;20296;-69
2023/03/05 05:21:59;;;;;;;49.73;18.80;;;;;;;6.58;83.67;94636.56;4972702;28;20272;-69
2023/03/05 05:24:25;;;;;;;45.43;17.50;;;;;;;6.56;83.30;94635.13;4970596;28;20972;-70
2023/03/05 05:26:53;;;;;;;44.47;18.40;;;;;;;6.54;82.85;94637.88;4951511;28;20288;-69
2023/03/05 05:29:18;;;;;;;45.10;18.53;;;;;;;6.48;82.94;94643.81;4974662;28;20234;-70
2023/03/05 05:31:44;;;;;;;45.43;17.97;;;;;;;6.51;83.18;94627.88;4978013;28;20755;-71
2023/03/05 05:34:10;;;;;;;50.07;17.80;;;;;;;6.49;83.22;94637.66;4987391;28;20243;-71
2023/03/05 05:36:36;;;;;;;44.13;17.40;;;;;;;6.50;82.67;94635.84;4989014;28;20231;-70
2023/03/05 05:39:01;;;;;;;47.37;18.67;;;;;;;6.66;82.56;94646.84;5007088;28;20241;-69
2023/03/05 05:41:27;;;;;;;44.60;17.57;;;;;;;6.55;82.38;94642.09;4989421;28;20237;-70
2023/03/05 05:43:52;;;;;;;41.47;17.37;;;;;;;6.58;82.08;94639.16;5006243;28;20795;-70
2023/03/05 05:46:18;;;;;;;40.43;16.73;;;;;;;6.71;81.43;94643.72;4970203;28;20226;-69
2023/03/05 05:48:43;;;;;;;41.20;17.53;;;;;;;6.87;81.05;94646.09;4973639;28;20241;-70
2023/03/05 05:51:11;;;;;;;44.83;16.90;;;;;;;6.75;80.72;94648.38;4989204;28;20766;-71
2023/03/05 05:53:37;;;;;;;42.00;16.40;;;;;;;6.85;80.82;94642.88;4973490;28;20238;-70
2023/03/05 05:56:04;;;;;;;41.40;16.80;;;;;;;6.79;79.69;94652.19;4989415;28;20245;-71
2023/03/05 05:58:29;;;;;;;41.50;16.57;;;;;;;6.91;80.00;94649.94;4988415;28;20230;-70
2023/03/05 06:00:54;;;;;;;42.40;16.77;;;;;;;6.97;78.80;94654.41;5005042;28;20612;-70
2023/03/05 06:03:20;;;;;;;39.47;16.83;;;;;;;7.01;78.23;94660.03;4989139;28;20231;-70
2023/03/05 06:05:46;;;;;;;39.83;16.50;;;;;;;6.97;78.15;94667.41;5006952;28;20234;-70
2023/03/05 06:08:11;;;;;;;42.20;17.20;;;;;;;7.21;78.77;94659.25;4989051;28;20309;-70
2023/03/05 06:10:37;;;;;;;38.73;16.03;;;;;;;7.16;78.61;94661.63;4988686;28;20238;-70
2023/03/05 06:13:03;;;;;;;39.43;15.47;;;;;;;7.19;77.24;94665.63;4988784;28;20235;-71
2023/03/05 06:15:28;;;;;;;40.43;16.13;;;;;;;7.18;76.49;94669.22;4979555;28;20234;-70
2023/03/05 06:17:54;;;;;;;33.77;14.77;;;;;;;7.24;76.23;94671.06;5005943;28;20801;-70
2023/03/05 06:20:20;;;;;;;39.20;16.40;;;;;;;7.26;76.47;94672.50;4984623;28;20241;-70
2023/03/05 06:22:45;;;;;;;44.03;17.03;;;;;;;7.45;76.27;94666.69;4989105;28;20231;-70
2023/03/05 06:25:11;;;;;;;37.43;15.10;;;;;;;7.20;75.70;94669.84;5003208;28;20214;-70
2023/03/05 06:27:36;;;;;;;38.70;15.70;;;;;;;7.15;76.40;94665.19;4969172;28;20251;-69
2023/03/05 06:30:03;;;;;;;41.40;16.13;;;;;;;7.24;75.91;94671.88;4968540;28;20224;-71
2023/03/05 06:32:29;;;;;;;41.47;16.10;;;;;;;7.27;75.29;94674.13;4969312;28;20223;-70
2023/03/05 06:34:54;;;;;;;40.83;15.77;;;;;;;7.32;75.25;94673.56;4970019;28;20235;-70
2023/03/05 06:37:20;;;;;;;38.73;15.33;;;;;;;7.35;74.16;94673.22;4984782;28;20235;-70
2023/03/05 06:39:45;;;;;;;38.73;16.20;;;;;;;7.44;74.58;94675.50;4984472;28;20231;-71
2023/03/05 06:42:11;;;;;;;39.83;15.93;;;;;;;7.46;73.94;94675.31;4983253;28;20240;-70
2023/03/05 06:44:40;;;;;;;37.60;15.07;;;;;;;7.37;73.38;94685.06;4968454;28;20732;-71
2023/03/05 06:47:06;;;;;;;38.60;15.87;;;;;;;7.40;74.42;94682.06;4985093;28;20622;-70
2023/03/05 06:49:32;;;;;;;40.67;15.53;;;;;;;7.50;73.64;94683.56;4969008;28;20227;-69
2023/03/05 06:51:57;;;;;;;40.47;15.90;;;;;;;7.38;73.40;94686.66;4968247;28;20294;-69
2023/03/05 06:54:23;;;;;;;37.20;15.20;;;;;;;7.33;72.64;94685.59;4969587;28;21143;-69
2023/03/05 06:56:48;;;;;;;35.30;14.87;;;;;;;7.51;72.41;94691.19;4968598;28;20231;-69
2023/03/05 06:59:14;;;;;;;38.33;15.23;;;;;;;7.70;71.24;94687.94;4984950;28;20231;-69
2023/03/05 07:01:40;;;;;;;39.73;16.00;;;;;;;7.71;70.52;94692.19;4967652;28;20632;-70
2023/03/05 07:04:05;;;;;;;37.97;15.87;;;;;;;7.70;71.04;94695.75;4951316;28;20234;-70
2023/03/05 07:06:32;;;;;;;37.47;16.07;;;;;;;7.87;70.42;94691.91;4968897;28;20243;-70
2023/03/05 07:09:00;;;;;;;38.47;15.13;;;;;;;8.22;70.08;94697.16;4952139;28;20239;-69
2023/03/05 07:11:25;;;;;;;38.83;15.67;;;;;;;8.26;68.53;94690.59;4968877;28;20220;-68
2023/03/05 07:13:51;;;;;;;40.30;16.07;;;;;;;8.17;68.64;94689.13;4969417;28;20326;-70
2023/03/05 07:16:21;;;;;;;41.60;15.67;;;;;;;8.26;67.98;94682.75;4983718;28;20250;-70
2023/03/05 07:18:47;;;;;;;39.53;15.97;;;;;;;8.58;67.67;94692.59;4968580;28;20224;-70
2023/03/05 07:21:18;;;;;;;40.73;15.80;;;;;;;8.50;68.00;94690.94;4967817;28;20230;-70
2023/03/05 07:23:44;;;;;;;40.93;16.40;;;;;;;8.46;67.44;94689.72;4984815;28;20293;-70
2023/03/05 07:26:09;;;;;;;39.90;15.90;;;;;;;8.25;67.81;94694.16;4970391;28;20246;-71
2023/03/05 07:28:35;;;;;;;37.87;16.73;;;;;;;8.71;67.52;94674.41;4971476;28;20273;-69
2023/03/05 07:31:05;;;;;;;40.07;16.23;;;;;;;8.79;67.35;94684.66;4987247;28;20247;-70
2023/03/05 07:33:31;;;;;;;42.77;16.60;;;;;;;8.62;67.43;94691.22;4986282;28;20297;-70
2023/03/05 07:35:56;;;;;;;40.67;16.70;;;;;;;8.54;67.34;94683.56;4987658;28;20692;-70
2023/03/05 07:38:22;;;;;;;39.57;16.70;;;;;;;8.71;67.31;94687.47;4969611;28;21266;-69
2023/03/05 07:40:47;;;;;;;41.33;16.90;;;;;;;8.86;66.57;94676.88;5004130;28;20234;-70
2023/03/05 07:43:13;;;;;;;40.17;17.10;;;;;;;8.88;67.14;94683.53;4998370;28;20265;-70
2023/03/05 07:45:42;;;;;;;44.60;17.57;;;;;;;8.99;67.20;94685.56;4997319;28;20617;-69
2023/03/05 07:48:11;;;;;;;41.37;17.60;;;;;;;8.95;66.44;94683.53;4969575;28;20238;-69
2023/03/05 07:50:36;;;;;;;43.43;17.87;;;;;;;8.93;66.94;94688.16;4987630;28;20903;-70
2023/03/05 07:53:02;;;;;;;45.10;18.13;;;;;;;9.14;67.00;94682.81;4983652;28;20289;-69
2023/03/05 07:55:27;;;;;;;44.43;18.43;;;;;;;9.18;66.11;94684.81;5003228;28;20223;-70
2023/03/05 07:57:53;;;;;;;39.73;16.97;;;;;;;8.95;67.70;94680.94;4980947;28;20230;-70
2023/03/05 08:00:19;;;;;;;40.30;17.07;;;;;;;8.85;67.76;94683.91;4987133;28;20230;-73
2023/03/05 08:02:45;;;;;;;42.53;17.77;;;;;;;9.10;68.06;94690.22;4986950;28;20239;-70
2023/03/05 08:05:10;;;;;;;40.87;17.60;;;;;;;8.97;67.70;94690.19;4987097;28;20245;-70
2023/03/05 08:07:36;;;;;;;44.67;18.60;;;;;;;8.99;67.86;94690.78;4972081;28;20333;-71
2023/03/05 08:10:02;;;;;;;48.30;18.63;;;;;;;9.12;68.05;94682.19;4988893;28;20224;-71
2023/03/05 08:12:28;;;;;;;46.43;18.33;;;;;;;8.72;68.66;94681.22;5004316;28;20314;-71
2023/03/05 08:14:53;;;;;;;48.20;19.07;;;;;;;8.56;68.52;94684.16;4998402;28;20243;-70
2023/03/05 08:17:19;;;;;;;48.00;19.00;;;;;;;8.88;68.27;94687.94;4986392;28;20300;-70
2023/03/05 08:19:44;;;;;;;45.90;19.07;;;;;;;9.08;68.38;94686.19;5001857;28;20254;-70
2023/03/05 08:22:10;;;;;;;45.30;19.03;;;;;;;9.14;68.04;94678.41;4969120;28;20683;-69
2023/03/05 08:24:35;;;;;;;47.93;18.83;;;;;;;9.34;67.41;94681.84;4970174;28;20238;-70
2023/03/05 08:27:01;;;;;;;48.43;19.60;;;;;;;9.29;67.23;94681.63;4985679;28;20257;-70
2023/03/05 08:29:26;;;;;;;48.17;19.47;;;;;;;9.23;67.64;94682.44;4982084;28;20234;-70
2023/03/05 08:31:52;;;;;;;48.23;20.20;;;;;;;9.39;67.60;94678.63;5001741;28;20630;-68
2023/03/05 08:34:19;;;;;;;47.87;19.40;;;;;;;9.55;67.54;94686.13;4986265;28;20309;-70
2023/03/05 08:36:45;;;;;;;48.40;19.03;;;;;;;9.56;66.77;94682.50;4984632;28;20326;-69
2023/03/05 08:39:10;;;;;;;39.97;17.77;;;;;;;9.51;66.21;94674.44;4986112;28;20325;-70
2023/03/05 08:41:36;;;;;;;46.33;19.13;;;;;;;9.36;67.25;94674.63;4976956;28;20257;-70
2023/03/05 08:44:01;;;;;;;45.00;19.23;;;;;;;9.23;66.90;94671.19;4987099;28;20239;-69
2023/03/05 08:46:27;;;;;;;52.37;19.93;;;;;;;9.01;68.41;94662.69;4989112;28;20257;-71
2023/03/05 08:48:52;;;;;;;42.47;19.43;;;;;;;9.48;67.35;94667.81;4988900;28;20233;-69
2023/03/05 08:51:20;;;;;;;44.83;18.27;;;;;;;9.37;66.72;94670.19;4988988;28;21992;-69
2023/03/05 08:53:45;;;;;;;41.87;18.27;;;;;;;9.44;66.09;94661.38;4973377;28;20265;-70
2023/03/05 08:56:11;;;;;;;42.60;18.40;;;;;;;9.73;65.31;94662.00;4954089;28;20231;-70
2023/03/05 08:58:39;;;;;;;45.33;19.23;;;;;;;9.84;65.59;94656.19;4969979;28;20273;-70
2023/03/05 09:01:05;;;;;;;43.97;19.23;;;;;;;10.00;65.63;94653.97;4972596;28;20230;-69
2023/03/05 09:03:31;;;;;;;44.97;19.13;;;;;;;9.96;64.69;94657.19;4977350;28;20261;-70
2023/03/05 09:06:04;;;;;;;46.60;19.30;;;;;;;9.85;65.39;94644.72;4963745;28;20265;-69
2023/03/05 09:08:29;;;;;;;45.70;18.80;;;;;;;10.05;64.46;94645.53;4993225;28;20257;-71
2023/03/05 09:10:55;;;;;;;45.07;18.27;;;;;;;9.79;64.04;94640.31;4969062;28;22727;-70
2023/03/05 09:13:21;;;;;;;42.47;18.77;;;;;;;9.94;63.38;94635.66;4990185;28;20266;-70
2023/03/05 09:15:53;;;;;;;42.23;18.53;;;;;;;9.97;63.44;94643.09;4991280;28;21264;-70
2023/03/05 09:18:20;;;;;;;43.37;17.90;;;;;;;10.15;63.19;94630.22;4992816;28;20235;-70
2023/03/05 09:20:45;;;;;;;42.30;17.83;;;;;;;10.21;61.81;94634.66;4992229;28;20288;-69
2023/03/05 09:23:11;;;;;;;44.37;17.63;;;;;;;9.94;60.58;94641.69;4991877;28;21028;-69
2023/03/05 09:25:39;;;;;;;41.10;17.93;;;;;;;9.96;61.16;94637.06;4991882;28;20238;-70
2023/03/05 09:28:04;;;;;;;42.83;19.43;;;;;;;10.04;61.50;94628.22;4974506;28;21248;-69
2023/03/05 09:30:30;;;;;;;39.40;17.63;;;;;;;10.03;61.15;94637.09;4992747;28;20231;-70
2023/03/05 09:32:55;;;;;;;39.03;17.60;;;;;;;10.04;60.53;94621.19;5008052;28;20245;-70
2023/03/05 09:35:21;;;;;;;35.80;16.47;;;;;;;10.27;61.23;94627.81;4992640;28;20289;-70
2023/03/05 09:37:46;;;;;;;44.57;18.90;;;;;;;10.29;59.07;94621.38;4974677;28;20223;-70
2023/03/05 09:40:14;;;;;;;36.67;16.93;;;;;;;10.54;60.06;94619.69;4990919;28;20266;-70
2023/03/05 09:42:53;;;;;;;38.47;17.40;;;;;;;10.32;58.59;94623.56;4992597;28;20268;-70
2023/03/05 09:45:41;;;;;;;36.90;16.10;;;;;;;10.41;58.07;94611.09;4991026;28;20932;-70
2023/03/05 09:48:06;;;;;;;38.47;16.80;;;;;;;10.55;58.67;94616.06;4976169;28;20285;-70
2023/03/05 09:50:40;;;;;;;37.37;15.93;;;;;;;10.58;56.24;94609.63;4992777;28;20237;-69
2023/03/05 09:53:43;;;;;;;38.30;16.60;;;;;;;10.65;56.30;94608.56;4990146;28;20245;-69
2023/03/05 09:56:11;;;;;;;35.87;15.93;;;;;;;10.59;55.31;94605.97;4992761;28;21834;-70
2023/03/05 09:58:41;;;;;;;34.20;16.00;;;;;;;10.66;54.77;94599.72;4984658;28;20274;-70
2023/03/05 10:01:12;;;;;;;33.30;16.00;;;;;;;10.47;54.58;94605.81;4984742;28;20336;-70
2023/03/05 10:04:13;;;;;;;34.87;15.80;;;;;;;10.52;53.68;94599.97;4967547;28;20235;-69
2023/03/05 10:06:57;;;;;;;30.50;14.83;;;;;;;10.67;53.14;94593.50;5003953;28;20262;-70
2023/03/05 10:09:27;;;;;;;36.27;16.30;;;;;;;10.87;52.67;94603.06;5004310;28;20230;-70
2023/03/05 10:12:04;;;;;;;34.00;15.43;;;;;;;11.08;51.94;94589.66;5005273;28;20778;-70
2023/03/05 10:14:33;;;;;;;33.97;15.77;;;;;;;11.03;51.79;94592.09;4986001;28;20763;-69
2023/03/05 10:17:14;;;;;;;34.90;15.60;;;;;;;11.00;51.93;94584.66;4967843;28;20238;-70
2023/03/05 10:20:10;;;;;;;33.77;14.63;;;;;;;11.32;50.64;94581.03;5004598;28;20243;-69
2023/03/05 10:22:50;;;;;;;35.00;16.23;;;;;;;11.33;49.89;94578.19;4996563;28;20243;-70
2023/03/05 10:25:39;;;;;;;31.93;14.40;;;;;;;11.40;50.17;94573.72;4985554;28;20238;-70
2023/03/05 10:28:16;;;;;;;35.27;16.13;;;;;;;11.68;50.40;94568.06;4994453;28;20332;-70
2023/03/05 10:31:00;;;;;;;30.63;15.37;;;;;;;11.54;49.50;94569.16;4998771;28;20226;-70
2023/03/05 10:33:44;;;;;;;29.80;14.50;;;;;;;11.51;49.04;94559.13;5006899;28;20257;-70
2023/03/05 10:36:29;;;;;;;31.20;15.07;;;;;;;11.58;48.26;94559.06;5007764;28;20238;-70
2023/03/05 10:39:03;;;;;;;31.20;14.77;;;;;;;11.40;47.93;94550.13;5007012;28;20720;-70
2023/03/05 10:41:29;;;;;;;28.97;14.10;;;;;;;11.54;47.10;94550.81;5006244;28;20245;-69
2023/03/05 10:44:00;;;;;;;28.73;13.83;;;;;;;11.34;47.40;94539.72;5004878;28;20238;-70
2023/03/05 10:46:31;;;;;;;28.77;13.40;;;;;;;11.58;47.28;94538.91;5001667;28;20258;-69
2023/03/05 10:48:58;;;;;;;27.83;13.87;;;;;;;11.55;47.40;94539.34;4972520;28;20223;-71
2023/03/05 10:51:59;;;;;;;26.57;13.77;;;;;;;11.61;47.54;94541.09;4966581;28;20230;-70
2023/03/05 10:54:34;;;;;;;26.63;13.67;;;;;;;11.25;47.47;94528.69;4987039;28;20299;-69
2023/03/05 10:57:22;;;;;;;28.87;13.90;;;;;;;11.34;47.31;94537.09;4984184;28;20238;-69
2023/03/05 10:59:57;;;;;;;27.10;13.73;;;;;;;11.53;47.06;94523.03;5003657;28;20392;-69
2023/03/05 11:02:23;;;;;;;26.97;13.43;;;;;;;11.73;46.66;94526.28;4997445;28;20242;-70
2023/03/05 11:04:49;;;;;;;25.37;12.93;;;;;;;11.75;46.91;94510.38;4988246;28;20235;-69
2023/03/05 11:07:14;;;;;;;30.10;13.43;;;;;;;11.75;47.08;94511.13;5020721;28;21081;-70
2023/03/05 11:09:44;;;;;;;26.93;13.03;;;;;;;11.79;47.64;94507.09;5006035;28;20242;-70
2023/03/05 11:12:11;;;;;;;31.27;13.67;;;;;;;12.29;47.09;94515.63;4986480;28;20322;-69
2023/03/05 11:14:40;;;;;;;30.63;13.73;;;;;;;12.00;47.31;94501.41;5004653;28;20288;-70
2023/03/05 11:17:27;;;;;;;30.20;13.37;;;;;;;11.86;47.13;94501.78;4972202;28;20226;-71
2023/03/05 11:19:53;;;;;;;24.70;12.60;;;;;;;11.63;46.19;94506.81;5004082;28;20226;-69
2023/03/05 11:22:22;;;;;;;26.27;12.83;;;;;;;11.67;46.66;94505.34;4987918;28;20616;-70
2023/03/05 11:25:09;;;;;;;26.60;12.60;;;;;;;11.63;47.13;94504.97;4988552;28;20803;-69